| time (UTC) | temp C | wind direction | speed KPH | gust KPH | rain 1hr cm | rain 24hr cm | rain mn cm | humidity % | barometer mb |
| 20260503230048 | 17 | 356 | 3.2 | 6.4 | 0.00 | 0.00 | 0.00 | 23 | 1014.1 |
| 20260503225047 | 18 | 314 | 1.6 | 6.4 | 0.00 | 0.00 | 0.00 | 21 | 1014.1 |
| 20260503224047 | 17 | 308 | 3.2 | 11.3 | 0.00 | 0.00 | 0.00 | 23 | 1014.1 |
| 20260503223049 | 18 | 293 | 3.2 | 12.9 | 0.00 | 0.00 | 0.00 | 23 | 1014.0 |
| 20260503222047 | 19 | 201 | 4.8 | 11.3 | 0.00 | 0.00 | 0.00 | 20 | 1014.0 |
| 20260503221047 | 18 | 197 | 3.2 | 11.3 | 0.00 | 0.00 | 0.00 | 23 | 1014.0 |
| 20260503220047 | 18 | 197 | 3.2 | 9.7 | 0.00 | 0.00 | 0.00 | 20 | 1014.1 |
| 20260503215048 | 19 | 306 | 3.2 | 6.4 | 0.00 | 0.00 | 0.00 | 22 | 1014.1 |
| 20260503214048 | 17 | 345 | 4.8 | 11.3 | 0.00 | 0.00 | 0.00 | 22 | 1014.2 |
| 20260503213047 | 17 | 314 | 6.4 | 14.5 | 0.00 | 0.00 | 0.00 | 23 | 1014.1 |
| 20260503212047 | 18 | 196 | 6.4 | 16.1 | 0.00 | 0.00 | 0.00 | 21 | 1014.2 |
| 20260503211047 | 18 | 235 | 4.8 | 16.1 | 0.00 | 0.00 | 0.00 | 22 | 1014.2 |
| 20260503210047 | 17 | 316 | 6.4 | 16.1 | 0.00 | 0.00 | 0.00 | 23 | 1014.3 |
| 20260503205048 | 17 | 284 | 3.2 | 12.9 | 0.00 | 0.00 | 0.00 | 24 | 1014.4 |
| 20260503204047 | 16 | 300 | 6.4 | 12.9 | 0.00 | 0.00 | 0.00 | 22 | 1014.5 |
| 20260503203047 | 18 | 18 | 1.6 | 14.5 | 0.00 | 0.00 | 0.00 | 22 | 1014.5 |
| 20260503202047 | 17 | 268 | 6.4 | 11.3 | 0.00 | 0.00 | 0.00 | 22 | 1014.7 |
| 20260503201050 | 17 | 194 | 8.0 | 14.5 | 0.00 | 0.00 | 0.00 | 23 | 1014.8 |
| 20260503200047 | 17 | 278 | 6.4 | 9.7 | 0.00 | 0.00 | 0.00 | 26 | 1014.9 |
| 20260503195047 | 16 | 52 | 6.4 | 16.1 | 0.00 | 0.00 | 0.00 | 25 | 1015.1 |
| 20260503194048 | 16 | 286 | 6.4 | 14.5 | 0.00 | 0.00 | 0.00 | 24 | 1015.3 |
| 20260503193047 | 16 | 303 | 8.0 | 11.3 | 0.00 | 0.00 | 0.00 | 24 | 1015.3 |
| 20260503192047 | 16 | 288 | 3.2 | 14.5 | 0.00 | 0.00 | 0.00 | 26 | 1015.2 |
| 20260503191048 | 16 | 227 | 4.8 | 22.5 | 0.00 | 0.00 | 0.00 | 25 | 1015.6 |
| 20260503190048 | 15 | 290 | 6.4 | 17.7 | 0.00 | 0.00 | 0.00 | 25 | 1015.7 |
| 20260503185047 | 15 | 299 | 6.4 | 14.5 | 0.00 | 0.00 | 0.00 | 30 | 1015.9 |
| 20260503184046 | 15 | 287 | 6.4 | 14.5 | 0.00 | 0.00 | 0.00 | 30 | 1016.1 |
| 20260503183048 | 15 | 195 | 4.8 | 16.1 | 0.00 | 0.00 | 0.00 | 28 | 1016.1 |
| 20260503182047 | 14 | 299 | 8.0 | 17.7 | 0.00 | 0.00 | 0.00 | 29 | 1016.3 |
| 20260503181049 | -17 | 0.0 | 0.0 | 0.00 | 0.00 | 0.00 | 1016.3 | ||
| 20260503180048 | -17 | 0.0 | 0.0 | 0.00 | 0.00 | 0.00 | 1016.4 | ||
| 20260503175049 | -17 | 0.0 | 0.0 | 0.00 | 0.00 | 0.00 | 1016.3 | ||
| 20260503174049 | -17 | 0.0 | 0.0 | 0.00 | 0.00 | 0.00 | 1016.4 | ||
| 20260503173048 | -17 | 0.0 | 0.0 | 0.00 | 0.00 | 0.00 | 1016.5 | ||
| 20260503172047 | -17 | 0.0 | 0.0 | 0.00 | 0.00 | 0.00 | 1016.7 | ||
| 20260503171047 | -17 | 0.0 | 0.0 | 0.00 | 0.00 | 0.00 | 1016.8 | ||
| 20260503131048 | 7 | 306 | 3.2 | 9.7 | 0.00 | 0.00 | 0.00 | 45 | 1017.9 |
| 20260503081049 | 5 | 17 | 1.6 | 8.0 | 0.00 | 0.00 | 0.00 | 68 | 1015.2 |
| 20260503072048 | 5 | 344 | 3.2 | 6.4 | 0.00 | 0.00 | 0.00 | 67 | 1014.8 |
| 20260503071048 | 5 | 12 | 1.6 | 6.4 | 0.00 | 0.00 | 0.00 | 68 | 1014.7 |
| 20260503055047 | 5 | 324 | 3.2 | 6.4 | 0.00 | 0.00 | 0.00 | 70 | 1014.6 |
| 20260503054048 | 5 | 305 | 1.6 | 4.8 | 0.00 | 0.00 | 0.00 | 71 | 1014.7 |
| 20260503053047 | 5 | 300 | 1.6 | 6.4 | 0.00 | 0.00 | 0.00 | 71 | 1014.6 |
| 20260503052047 | 5 | 290 | 1.6 | 4.8 | 0.00 | 0.00 | 0.00 | 69 | 1014.5 |
| 20260503051050 | 5 | 180 | 0.0 | 3.2 | 0.00 | 0.00 | 0.00 | 70 | 1014.6 |
| 20260503050052 | 4 | 180 | 0.0 | 1.6 | 0.00 | 0.00 | 0.00 | 69 | 1014.6 |
| 20260503045047 | 5 | 305 | 1.6 | 3.2 | 0.00 | 0.00 | 0.00 | 68 | 1014.6 |
| 20260503044048 | 5 | 309 | 3.2 | 6.4 | 0.00 | 0.00 | 0.00 | 66 | 1014.7 |
| 20260503043047 | 5 | 11 | 3.2 | 6.4 | 0.00 | 0.00 | 0.00 | 64 | 1014.7 |
| 20260503042050 | 5 | 3 | 1.6 | 6.4 | 0.00 | 0.00 | 0.00 | 64 | 1014.7 |
| 20260503041047 | 6 | 23 | 3.2 | 11.3 | 0.00 | 0.00 | 0.00 | 62 | 1014.6 |
| 20260503040049 | 6 | 32 | 4.8 | 8.0 | 0.00 | 0.00 | 0.00 | 60 | 1014.7 |
| 20260503035048 | 6 | 30 | 4.8 | 11.3 | 0.00 | 0.00 | 0.00 | 59 | 1014.6 |
| 20260503034048 | 7 | 12 | 3.2 | 9.7 | 0.00 | 0.00 | 0.00 | 57 | 1014.6 |
| 20260503033047 | 7 | 17 | 4.8 | 11.3 | 0.00 | 0.00 | 0.00 | 55 | 1014.5 |
| 20260503032047 | 7 | 307 | 3.2 | 11.3 | 0.00 | 0.00 | 0.00 | 53 | 1014.4 |
| 20260503031047 | 8 | 351 | 1.6 | 6.4 | 0.00 | 0.00 | 0.00 | 49 | 1014.3 |
| 20260503030047 | 8 | 304 | 3.2 | 9.7 | 0.00 | 0.00 | 0.00 | 47 | 1014.4 |
| 20260503025047 | 8 | 301 | 4.8 | 9.7 | 0.00 | 0.00 | 0.00 | 46 | 1014.3 |
| 20260503024047 | 8 | 301 | 3.2 | 6.4 | 0.00 | 0.00 | 0.00 | 45 | 1014.3 |
| 20260503023048 | 8 | 326 | 1.6 | 9.7 | 0.00 | 0.00 | 0.00 | 44 | 1014.3 |
| 20260503022047 | 8 | 305 | 0.0 | 3.2 | 0.00 | 0.00 | 0.00 | 45 | 1014.2 |
| 20260503021049 | 9 | 301 | 3.2 | 8.0 | 0.00 | 0.00 | 0.00 | 42 | 1014.2 |
| 20260503020050 | 9 | 312 | 6.4 | 14.5 | 0.00 | 0.00 | 0.00 | 41 | 1014.1 |
| 20260503015049 | 9 | 306 | 1.6 | 4.8 | 0.00 | 0.00 | 0.00 | 43 | 1014.2 |
| 20260503014048 | 9 | 297 | 1.6 | 6.4 | 0.00 | 0.00 | 0.00 | 41 | 1014.1 |
| 20260503013051 | 10 | 307 | 3.2 | 16.1 | 0.00 | 0.00 | 0.00 | 40 | 1014.1 |
| 20260503012048 | 10 | 297 | 6.4 | 11.3 | 0.00 | 0.00 | 0.00 | 39 | 1014.0 |
| 20260503011048 | 10 | 297 | 3.2 | 11.3 | 0.00 | 0.00 | 0.00 | 38 | 1013.8 |
| 20260503010047 | 10 | 296 | 4.8 | 9.7 | 0.00 | 0.00 | 0.00 | 39 | 1013.7 |
| 20260503005047 | 10 | 298 | 4.8 | 9.7 | 0.00 | 0.00 | 0.00 | 38 | 1013.6 |
| 20260503004047 | 10 | 289 | 1.6 | 8.0 | 0.00 | 0.00 | 0.00 | 39 | 1013.4 |
| 20260503003047 | 10 | 307 | 6.4 | 12.9 | 0.00 | 0.00 | 0.00 | 37 | 1013.2 |
| 20260503002050 | 10 | 293 | 4.8 | 16.1 | 0.00 | 0.00 | 0.00 | 37 | 1013.1 |
| 20260503001047 | 10 | 297 | 4.8 | 14.5 | 0.00 | 0.00 | 0.00 | 38 | 1012.9 |
| 20260503000047 | 10 | 285 | 3.2 | 11.3 | 0.00 | 0.00 | 0.00 | 37 | 1012.8 |
| 20260502235048 | 10 | 288 | 8.0 | 14.5 | 0.00 | 0.00 | 0.00 | 37 | 1012.6 |
| 20260502234048 | 10 | 311 | 3.2 | 8.0 | 0.00 | 0.00 | 0.00 | 39 | 1012.6 |
| 20260502233048 | 10 | 308 | 4.8 | 20.9 | 0.00 | 0.00 | 0.00 | 36 | 1012.4 |
| 20260502232048 | 11 | 288 | 8.0 | 17.7 | 0.00 | 0.00 | 0.00 | 38 | 1012.3 |
| 20260502231050 | 11 | 326 | 4.8 | 12.9 | 0.00 | 0.00 | 0.00 | 38 | 1012.2 |